Quick Links (Output Below):   Max & Min Temps   /   Climate Reports   /   Zone Forecasts
River Forecasts   /   Forestry Forecasts   /   Aviation Forecasts   /   Radars   /   Features

Terminal Aerodrome Forecast (Fort Smith)

Pick a Site:
Arkadelphia | El Dorado | Fayetteville | Fort Smith | Harrison | Highfill | Hot Springs | Jonesboro
Little Rock | Monticello | Mountain Home | Pine Bluff | Texarkana
 Forecast 

KFSM 231720Z 2318/2418 06007KT P6SM SKC
     FM240300 08003KT P6SM BKN250
     FM241500 09006KT P6SM BKN150=


 Latest METARs (Observations) 
How to Decode METARs
22Z KFSM 232153Z 09007KT 10SM CLR 26/08 A3014 RMK AO2 SLP202
         T02560078
         
21Z KFSM 232053Z 11006KT 10SM CLR 25/08 A3016 RMK AO2 SLP209 T02500083
         58027
         
20Z KFSM 231953Z 08008KT 10SM CLR 25/09 A3018 RMK AO2 SLP216
         T02500094
         
19Z KFSM 231853Z 12005KT 10SM R25/5500VP6000FT CLR 24/09 A3022 RMK AO2
         SLP230 T02390094
         
18Z KFSM 231753Z 12005KT 10SM CLR 22/11 A3024 RMK AO2 SLP237 T02220106
         10228 20128 58008
         
17Z KFSM 231653Z 12005KT 10SM CLR 22/10 A3026 RMK AO2 SLP244
         T02170100
         
16Z KFSM 231553Z 06007KT 10SM CLR 20/12 A3027 RMK AO2 SLP248
         T02000117
         
15Z KFSM 231453Z 07008KT 10SM CLR 18/12 A3026 RMK AO2 SLP245 T01830122
         53009
         
14Z KFSM 231353Z 10006KT 10SM CLR 16/13 A3025 RMK AO2 SLP241
         T01610128
         
13Z KFSM 231253Z 07004KT 10SM CLR 13/12 A3025 RMK AO2 SLP239
         T01330122
         
***** Today's Observations (Above) *****


Back to Main Page
http://www.srh.noaa.gov/lzk/qfcst.php

USA.gov is the U.S. government's official web portal to all federal, state and local government web resources and services.